createdAt,value
2018-07-11T00:00:39.480Z,12.17
2018-07-11T00:03:07.220Z,10.63
2018-07-11T00:05:35.022Z,14.97
2018-07-11T00:08:02.772Z,11.73
2018-07-11T00:10:30.517Z,15.60
2018-07-11T00:12:58.210Z,10.63
2018-07-11T00:15:25.964Z,17.33
2018-07-11T00:17:53.582Z,13.60
2018-07-11T00:20:21.338Z,15.43
2018-07-11T00:22:49.150Z,19.93
2018-07-11T00:25:16.776Z,12.97
2018-07-11T00:27:44.503Z,7.43
2018-07-11T00:30:12.289Z,19.27
2018-07-11T00:32:40.072Z,17.23
2018-07-11T00:35:07.854Z,18.40
2018-07-11T00:37:35.579Z,29.63
2018-07-11T00:40:03.407Z,14.80
2018-07-11T00:42:31.197Z,20.43
2018-07-11T00:44:58.949Z,16.77
2018-07-11T00:47:26.702Z,13.53
2018-07-11T00:49:54.497Z,13.40
2018-07-11T00:52:22.467Z,20.47
2018-07-11T00:54:50.256Z,25.17
2018-07-11T00:57:18.250Z,14.00
2018-07-11T00:59:46.252Z,19.23
2018-07-11T01:02:14.487Z,8.67
2018-07-11T01:04:42.257Z,17.43
2018-07-11T01:07:10.033Z,11.97
2018-07-11T01:09:45.274Z,13.93
2018-07-11T01:12:13.069Z,13.63
2018-07-11T01:14:40.860Z,15.47
2018-07-11T01:17:14.201Z,18.70
2018-07-11T01:19:42.729Z,18.17
2018-07-11T01:22:10.511Z,12.80
2018-07-11T01:24:38.241Z,17.83
2018-07-11T01:27:05.967Z,12.40
2018-07-11T01:29:33.771Z,17.57
2018-07-11T01:32:01.523Z,18.93
2018-07-11T01:34:29.209Z,15.57
2018-07-11T01:36:56.897Z,17.90
2018-07-11T01:39:24.593Z,18.77
2018-07-11T01:41:52.363Z,12.10
2018-07-11T01:44:20.107Z,18.70
2018-07-11T01:46:50.109Z,23.23
2018-07-11T01:49:17.925Z,17.63
2018-07-11T01:51:57.658Z,15.77
2018-07-11T01:54:26.026Z,13.03
2018-07-11T01:56:53.812Z,19.23
2018-07-11T01:59:22.854Z,9.47
2018-07-11T02:01:50.629Z,22.17
2018-07-11T02:04:18.367Z,19.07
2018-07-11T02:06:46.201Z,17.70
2018-07-11T02:09:14.129Z,16.03
2018-07-11T02:11:42.139Z,16.10
2018-07-11T02:14:10.225Z,14.40
2018-07-11T02:16:38.033Z,17.53
2018-07-11T02:19:05.862Z,14.37
2018-07-11T02:21:33.672Z,17.60
2018-07-11T02:24:03.023Z,21.00
2018-07-11T02:26:30.761Z,18.23
2018-07-11T02:28:58.992Z,19.67
2018-07-11T02:31:27.154Z,15.73
2018-07-11T02:33:54.915Z,20.77
2018-07-11T02:36:22.674Z,14.27
2018-07-11T02:38:50.277Z,20.33
2018-07-11T02:41:18.046Z,21.17
2018-07-11T02:43:45.851Z,17.13
2018-07-11T02:46:13.589Z,16.17
2018-07-11T02:48:41.374Z,16.40
2018-07-11T02:51:09.172Z,14.90
2018-07-11T02:53:36.970Z,10.30
2018-07-11T02:56:04.824Z,11.27
2018-07-11T02:58:32.536Z,11.10
2018-07-11T03:01:00.273Z,16.83
2018-07-11T03:03:27.936Z,12.30
2018-07-11T03:05:55.951Z,15.30
2018-07-11T03:08:34.136Z,17.73
2018-07-11T03:11:01.898Z,15.60
2018-07-11T03:13:29.596Z,16.13
2018-07-11T03:15:57.362Z,17.77
2018-07-11T03:18:25.074Z,16.00
2018-07-11T03:20:52.820Z,17.53
2018-07-11T03:23:20.568Z,15.53
2018-07-11T03:25:48.301Z,15.07
2018-07-11T03:28:16.295Z,17.47
2018-07-11T03:30:44.088Z,15.33
2018-07-11T03:33:11.788Z,11.63
2018-07-11T03:35:39.503Z,19.07
2018-07-11T03:38:07.276Z,13.30
2018-07-11T03:40:35.043Z,11.13
2018-07-11T03:43:02.839Z,14.23
2018-07-11T03:45:30.510Z,16.73
2018-07-11T03:47:58.266Z,9.10
2018-07-11T03:50:25.967Z,14.17
2018-07-11T03:52:53.656Z,20.10
2018-07-11T03:55:21.336Z,15.33
2018-07-11T03:57:49.032Z,13.77
2018-07-11T04:00:16.774Z,14.87
2018-07-11T04:02:44.496Z,13.17
2018-07-11T04:05:12.330Z,7.87
2018-07-11T04:07:40.033Z,15.53
2018-07-11T04:10:07.730Z,13.87
2018-07-11T04:12:35.381Z,8.60
2018-07-11T04:15:03.138Z,14.27
2018-07-11T04:17:30.812Z,22.00
2018-07-11T04:19:58.570Z,11.50
2018-07-11T04:22:26.290Z,16.67
2018-07-11T04:24:53.971Z,14.90
2018-07-11T04:27:21.784Z,15.60
2018-07-11T04:29:49.836Z,11.30
2018-07-11T04:32:17.616Z,7.83
2018-07-11T04:34:45.321Z,11.17
2018-07-11T04:37:12.995Z,20.03
2018-07-11T04:39:40.726Z,18.77
2018-07-11T04:42:08.604Z,15.73
2018-07-11T04:44:36.420Z,18.63
2018-07-11T04:47:04.150Z,28.73
2018-07-11T04:49:31.932Z,19.50
2018-07-11T04:51:59.714Z,22.70
2018-07-11T04:54:27.348Z,14.20
2018-07-11T04:56:55.136Z,15.37
2018-07-11T04:59:22.859Z,16.27
2018-07-11T05:01:50.542Z,13.00
2018-07-11T05:04:18.482Z,17.27
2018-07-11T05:06:46.148Z,20.77
2018-07-11T05:09:13.826Z,14.30
2018-07-11T05:11:41.553Z,13.47
2018-07-11T05:14:09.249Z,12.97
2018-07-11T05:16:36.940Z,14.70
2018-07-11T05:19:04.784Z,16.37
2018-07-11T05:21:32.448Z,15.03
2018-07-11T05:24:00.073Z,20.77
2018-07-11T05:26:27.814Z,18.53
2018-07-11T05:28:55.545Z,15.73
2018-07-11T05:31:23.181Z,21.57
2018-07-11T05:33:50.861Z,24.97
2018-07-11T05:36:18.564Z,16.30
2018-07-11T05:38:46.465Z,17.77
2018-07-11T05:41:14.180Z,10.47
2018-07-11T05:43:41.848Z,17.40
2018-07-11T05:46:09.501Z,14.70
2018-07-11T05:48:37.163Z,17.73
2018-07-11T05:51:04.861Z,14.77
2018-07-11T05:53:32.545Z,25.00
2018-07-11T05:56:00.533Z,14.40
2018-07-11T05:58:28.250Z,10.60
2018-07-11T06:00:55.961Z,15.20
2018-07-11T06:03:23.700Z,18.37
2018-07-11T06:05:51.416Z,9.97
2018-07-11T06:08:19.130Z,11.70
2018-07-11T06:10:46.823Z,17.03
2018-07-11T06:13:14.553Z,17.50
2018-07-11T06:15:42.293Z,19.40
2018-07-11T06:18:09.996Z,15.43
2018-07-11T06:20:37.697Z,11.73
2018-07-11T06:23:05.427Z,10.13
2018-07-11T06:25:33.137Z,18.07
2018-07-11T06:28:00.813Z,15.13
2018-07-11T06:30:28.542Z,25.97
2018-07-11T06:32:56.310Z,11.20
2018-07-11T06:35:24.050Z,10.73
2018-07-11T06:37:51.854Z,16.27
2018-07-11T06:40:19.562Z,16.93
2018-07-11T06:42:47.211Z,18.30
2018-07-11T06:45:14.961Z,13.10
2018-07-11T06:47:42.816Z,7.97
2018-07-11T06:50:10.568Z,10.40
2018-07-11T06:52:38.228Z,14.73
2018-07-11T06:55:05.908Z,16.03
2018-07-11T06:57:33.706Z,16.33
2018-07-11T07:00:01.472Z,10.33
2018-07-11T07:02:29.235Z,7.57
2018-07-11T07:04:56.885Z,8.97
2018-07-11T07:07:24.540Z,9.83
2018-07-11T07:09:52.216Z,10.97
2018-07-11T07:12:19.860Z,4.80
2018-07-11T07:14:47.569Z,9.20
2018-07-11T07:17:15.456Z,11.10
2018-07-11T07:19:43.152Z,7.43
2018-07-11T07:22:11.034Z,13.23
2018-07-11T07:24:38.786Z,6.53
2018-07-11T07:27:06.617Z,8.33
2018-07-11T07:29:34.368Z,8.93
2018-07-11T07:32:02.058Z,8.30
2018-07-11T07:34:29.671Z,7.13
2018-07-11T07:36:57.455Z,8.60
2018-07-11T07:39:25.211Z,7.63
2018-07-11T07:41:52.936Z,9.87
2018-07-11T07:44:20.596Z,5.97
2018-07-11T07:46:54.080Z,4.47
2018-07-11T07:49:21.910Z,10.53
2018-07-11T07:51:49.620Z,4.97
2018-07-11T07:54:17.382Z,4.30
2018-07-11T07:56:45.193Z,5.20
2018-07-11T07:59:13.310Z,6.57
2018-07-11T08:01:41.152Z,8.20
2018-07-11T08:04:10.280Z,8.83
2018-07-11T08:06:38.018Z,3.53
2018-07-11T08:09:05.969Z,7.03
2018-07-11T08:11:33.652Z,4.73
2018-07-11T08:14:01.363Z,3.17
2018-07-11T08:16:29.068Z,4.60
2018-07-11T08:18:56.788Z,4.00
2018-07-11T08:21:24.535Z,4.33
2018-07-11T08:24:03.509Z,7.03
2018-07-11T08:26:42.459Z,6.50
2018-07-11T08:29:36.871Z,3.90
2018-07-11T08:32:17.559Z,3.63
2018-07-11T08:34:47.626Z,3.73
2018-07-11T08:40:35.482Z,3.93
2018-07-11T08:44:10.651Z,4.63
2018-07-11T08:46:46.449Z,7.80
2018-07-11T08:49:25.516Z,6.47
2018-07-11T08:52:20.177Z,7.17
2018-07-11T08:56:02.471Z,4.03
2018-07-11T08:58:53.649Z,2.80
2018-07-11T09:01:36.704Z,7.10
2018-07-11T09:06:21.281Z,3.87
2018-07-11T09:09:04.131Z,8.30
2018-07-11T09:11:50.512Z,4.10
2018-07-11T09:14:28.440Z,2.67
2018-07-11T09:18:10.877Z,4.40
2018-07-11T09:23:56.014Z,6.60
2018-07-11T09:26:23.705Z,3.33
2018-07-11T09:28:51.429Z,3.07
2018-07-11T09:31:19.191Z,2.10
2018-07-11T09:33:46.887Z,2.47
2018-07-11T09:36:14.609Z,7.50
2018-07-11T09:38:42.321Z,2.80
2018-07-11T09:41:10.123Z,6.80
2018-07-11T09:43:37.881Z,4.33
2018-07-11T09:46:05.687Z,3.93
2018-07-11T09:48:33.530Z,4.03
2018-07-11T09:51:01.337Z,4.57
2018-07-11T09:53:29.145Z,7.53
2018-07-11T09:55:56.763Z,4.13
2018-07-11T09:58:24.546Z,4.23
2018-07-11T10:00:57.887Z,3.93
2018-07-11T10:03:25.905Z,7.97
2018-07-11T10:05:53.915Z,3.97
2018-07-11T10:08:21.607Z,4.80
2018-07-11T10:10:49.268Z,5.93
2018-07-11T10:13:16.991Z,3.90
2018-07-11T10:15:44.798Z,6.80
2018-07-11T10:18:12.515Z,3.70
2018-07-11T10:20:40.518Z,4.37
2018-07-11T10:23:08.249Z,2.90
2018-07-11T10:25:35.967Z,2.33
2018-07-11T10:28:12.347Z,6.83
2018-07-11T10:30:40.185Z,1.47
2018-07-11T10:33:07.915Z,8.00
2018-07-11T10:35:35.849Z,6.00
2018-07-11T10:38:03.613Z,2.10
2018-07-11T10:40:31.342Z,2.53
2018-07-11T10:42:59.253Z,3.33
2018-07-11T10:45:27.332Z,3.07
2018-07-11T10:47:55.080Z,3.90
2018-07-11T10:50:22.832Z,5.53
2018-07-11T10:52:50.918Z,4.10
2018-07-11T10:55:18.809Z,4.23
2018-07-11T10:57:46.766Z,2.47
2018-07-11T11:00:35.972Z,3.43
2018-07-11T11:02:47.430Z,3.67
2018-07-11T11:05:15.178Z,2.40
2018-07-11T11:07:43.186Z,1.93
2018-07-11T11:10:10.940Z,2.73
2018-07-11T11:12:38.733Z,2.53
2018-07-11T11:15:06.514Z,5.37
2018-07-11T11:17:34.232Z,2.53
2018-07-11T11:20:01.998Z,4.47
2018-07-11T11:22:29.754Z,2.27
2018-07-11T11:24:57.505Z,4.53
2018-07-11T11:27:25.180Z,3.20
2018-07-11T11:29:52.960Z,1.50
2018-07-11T11:32:20.666Z,4.00
2018-07-11T11:34:48.422Z,2.07
2018-07-11T11:37:16.153Z,4.30
2018-07-11T11:39:43.820Z,8.23
2018-07-11T11:42:11.830Z,6.33
2018-07-11T11:44:39.247Z,2.80
2018-07-11T11:47:06.978Z,2.27
2018-07-11T11:49:34.742Z,4.13
2018-07-11T11:52:02.308Z,2.53
2018-07-11T11:54:30.061Z,1.43
2018-07-11T11:56:57.788Z,3.07
2018-07-11T11:59:25.496Z,1.10
2018-07-11T12:01:53.274Z,1.97
2018-07-11T12:04:21.060Z,1.13
2018-07-11T12:06:48.698Z,2.83
2018-07-11T12:09:16.620Z,3.17
2018-07-11T12:11:44.383Z,1.90
2018-07-11T12:14:12.089Z,2.07
2018-07-11T12:16:39.842Z,3.97
2018-07-11T12:19:07.530Z,3.10
2018-07-11T12:21:35.321Z,1.45
2018-07-11T12:24:03.016Z,1.50
2018-07-11T12:26:30.795Z,2.40
2018-07-11T12:28:58.500Z,3.40
2018-07-11T12:31:26.249Z,4.70
2018-07-11T12:33:53.994Z,4.77
2018-07-11T12:36:21.790Z,4.33
2018-07-11T12:38:53.184Z,7.77
2018-07-11T12:41:21.176Z,11.70
2018-07-11T12:43:48.916Z,2.17
2018-07-11T12:46:16.704Z,5.43
2018-07-11T12:48:50.170Z,5.03
2018-07-11T12:51:17.776Z,2.23
2018-07-11T12:53:45.560Z,3.53
2018-07-11T12:56:13.352Z,2.37
2018-07-11T12:58:41.194Z,2.03
2018-07-11T13:01:08.998Z,1.73
2018-07-11T13:03:36.730Z,9.90
2018-07-11T13:06:04.956Z,3.03
2018-07-11T13:08:32.730Z,3.17
2018-07-11T13:11:00.537Z,2.97
2018-07-11T13:13:28.196Z,4.00
2018-07-11T13:15:55.912Z,2.20
2018-07-11T13:18:23.606Z,2.23
2018-07-11T13:20:51.305Z,2.83
2018-07-11T13:23:18.996Z,3.63
2018-07-11T13:25:46.702Z,3.57
2018-07-11T13:28:14.421Z,2.50
2018-07-11T13:30:42.233Z,5.70
2018-07-11T13:33:09.988Z,3.07
2018-07-11T13:35:37.689Z,2.97
2018-07-11T13:38:05.498Z,3.47
2018-07-11T13:40:33.459Z,4.60
2018-07-11T13:43:01.223Z,3.53
2018-07-11T13:45:29.015Z,1.63
2018-07-11T13:48:00.660Z,1.93
2018-07-11T13:50:28.493Z,4.60
2018-07-11T13:52:57.005Z,4.13
2018-07-11T13:55:25.085Z,2.63
2018-07-11T13:57:52.883Z,5.67
2018-07-11T14:00:20.644Z,2.53
2018-07-11T14:02:49.085Z,3.87
2018-07-11T14:05:17.051Z,3.50
2018-07-11T14:07:44.827Z,2.87
2018-07-11T14:10:12.784Z,5.10
2018-07-11T14:12:40.595Z,2.10
2018-07-11T14:15:08.708Z,4.77
2018-07-11T14:17:36.475Z,6.20
2018-07-11T14:20:05.316Z,5.33
2018-07-11T14:22:32.985Z,6.93
2018-07-11T14:25:01.270Z,4.50
2018-07-11T14:27:29.147Z,5.33
2018-07-11T14:29:59.207Z,4.67
2018-07-11T14:32:27.005Z,9.43
2018-07-11T14:34:54.790Z,9.10
2018-07-11T14:37:22.503Z,2.63
2018-07-11T14:39:50.318Z,5.83
2018-07-11T14:42:18.010Z,5.93
2018-07-11T14:44:45.824Z,9.00
2018-07-11T14:47:19.315Z,5.83
2018-07-11T14:49:47.088Z,2.97
2018-07-11T14:52:14.853Z,7.67
2018-07-11T14:54:42.633Z,6.10
2018-07-11T14:57:10.547Z,7.07
2018-07-11T14:59:38.255Z,5.40
2018-07-11T15:02:06.009Z,6.30
2018-07-11T15:04:33.727Z,4.67
2018-07-11T15:07:01.440Z,4.30
2018-07-11T15:09:29.357Z,3.87
2018-07-11T15:11:57.009Z,3.40
2018-07-11T15:14:24.843Z,7.67
2018-07-11T15:16:52.622Z,12.33
2018-07-11T15:19:20.386Z,6.33
2018-07-11T15:21:48.190Z,6.72
2018-07-11T15:24:16.303Z,5.78
2018-07-11T15:26:44.018Z,3.85
2018-07-11T15:29:11.807Z,4.05
2018-07-11T15:31:39.554Z,3.87
2018-07-11T15:34:07.353Z,3.58
2018-07-11T15:36:35.577Z,4.25
2018-07-11T15:39:04.313Z,3.20
2018-07-11T15:41:32.448Z,10.53
2018-07-11T15:44:00.415Z,6.25
2018-07-11T15:46:28.078Z,3.47
2018-07-11T15:48:55.808Z,6.50
2018-07-11T15:51:23.607Z,2.17
2018-07-11T15:53:51.437Z,7.42
2018-07-11T15:56:19.281Z,5.40
2018-07-11T15:58:52.843Z,4.30
2018-07-11T16:01:20.456Z,3.27
2018-07-11T16:03:48.445Z,4.15
2018-07-11T16:06:17.105Z,3.65
2018-07-11T16:08:47.256Z,4.92
2018-07-11T16:11:15.038Z,5.30
2018-07-11T16:13:42.820Z,3.62
2018-07-11T16:16:10.506Z,5.65
2018-07-11T16:18:38.207Z,3.87
2018-07-11T16:21:06.834Z,8.23
2018-07-11T16:23:34.621Z,7.42
2018-07-11T16:26:02.392Z,5.15
2018-07-11T16:28:30.160Z,4.97
2018-07-11T16:30:57.973Z,5.80
2018-07-11T16:33:25.745Z,8.90
2018-07-11T16:35:53.632Z,5.55
2018-07-11T16:38:21.388Z,5.05
2018-07-11T16:40:49.633Z,9.43
2018-07-11T16:43:17.469Z,10.93
2018-07-11T16:45:45.298Z,6.40
2018-07-11T16:48:13.073Z,2.72
2018-07-11T16:50:40.854Z,4.35
2018-07-11T16:53:08.687Z,2.37
2018-07-11T16:55:36.475Z,4.65
2018-07-11T16:58:04.274Z,4.85
2018-07-11T17:00:33.264Z,5.28
2018-07-11T17:03:11.126Z,5.97
2018-07-11T17:05:52.438Z,6.37
2018-07-11T17:08:28.668Z,7.22
2018-07-11T17:11:03.484Z,5.95
2018-07-11T17:13:31.282Z,6.35
2018-07-11T17:15:59.052Z,3.10
2018-07-11T17:18:38.744Z,3.65
2018-07-11T17:21:08.188Z,4.97
2018-07-11T17:23:42.958Z,8.25
2018-07-11T17:26:10.629Z,4.83
2018-07-11T17:28:38.398Z,7.58
2018-07-11T17:31:06.204Z,4.97
2018-07-11T17:33:34.007Z,5.58
2018-07-11T17:36:01.788Z,7.40
2018-07-11T17:38:30.730Z,4.47
2018-07-11T17:41:00.811Z,6.70
2018-07-11T17:43:36.717Z,11.20
2018-07-11T17:46:05.299Z,4.67
2018-07-11T17:48:46.912Z,5.10
2018-07-11T17:51:51.114Z,8.35
2018-07-11T17:54:18.904Z,8.83
2018-07-11T17:56:57.085Z,6.45
2018-07-11T17:59:45.888Z,2.30
2018-07-11T18:02:19.134Z,4.43
2018-07-11T18:04:56.348Z,4.03
2018-07-11T18:07:56.057Z,6.10
2018-07-11T18:10:55.032Z,4.43
2018-07-11T18:13:42.071Z,5.50
2018-07-11T18:16:44.726Z,8.00
2018-07-11T18:19:18.091Z,5.93
2018-07-11T18:21:54.683Z,4.40
2018-07-11T18:24:36.056Z,6.60
2018-07-11T18:27:15.122Z,4.33
2018-07-11T18:32:02.643Z,4.20
2018-07-11T18:36:42.161Z,8.23
2018-07-11T18:39:15.609Z,14.17
2018-07-11T18:41:51.705Z,3.30
2018-07-11T18:45:35.272Z,5.13
2018-07-11T18:48:18.103Z,6.47
2018-07-11T18:52:58.972Z,4.60
2018-07-11T18:55:36.128Z,3.50
2018-07-11T18:58:19.151Z,5.10
2018-07-11T19:00:58.209Z,10.13
2018-07-11T19:03:34.675Z,2.40
2018-07-11T19:06:41.030Z,6.80
2018-07-11T19:09:11.082Z,3.70
2018-07-11T19:13:53.321Z,3.17
2018-07-11T19:17:04.564Z,3.80
2018-07-11T19:19:39.893Z,6.97
2018-07-11T19:24:19.965Z,9.60
2018-07-11T19:27:01.937Z,3.50
2018-07-11T19:29:49.119Z,4.17
2018-07-11T19:32:28.263Z,3.37
2018-07-11T19:37:04.693Z,5.17
2018-07-11T19:39:44.773Z,4.77
2018-07-11T19:42:17.885Z,5.40
2018-07-11T19:44:59.135Z,5.43
2018-07-11T19:47:40.717Z,2.67
2018-07-11T19:50:32.444Z,8.07
2018-07-11T19:53:09.147Z,8.90
2018-07-11T19:56:44.389Z,4.67
2018-07-11T19:59:13.158Z,10.63
2018-07-11T20:01:40.980Z,9.23
2018-07-11T20:04:09.511Z,8.77
2018-07-11T20:06:37.507Z,6.00
2018-07-11T20:09:06.132Z,8.93
2018-07-11T20:11:34.241Z,6.03
2018-07-11T20:14:01.970Z,7.40
2018-07-11T20:16:29.696Z,6.00
2018-07-11T20:18:57.680Z,4.87
2018-07-11T20:21:25.589Z,6.23
2018-07-11T20:23:53.334Z,4.00
2018-07-11T20:26:21.165Z,3.23
2018-07-11T20:28:49.001Z,2.63
2018-07-11T20:31:16.747Z,4.07
2018-07-11T20:33:44.482Z,7.90
2018-07-11T20:36:12.440Z,6.87
2018-07-11T20:38:40.853Z,6.47
2018-07-11T20:41:09.273Z,6.53
2018-07-11T20:43:36.930Z,6.87
2018-07-11T20:46:05.754Z,6.23
2018-07-11T20:48:33.528Z,5.97
2018-07-11T20:51:01.312Z,9.80
2018-07-11T20:53:29.054Z,6.30
2018-07-11T20:55:57.156Z,6.50
2018-07-11T20:58:36.682Z,7.67
2018-07-11T21:01:15.669Z,4.70
2018-07-11T21:03:53.492Z,6.87
2018-07-11T21:07:30.798Z,7.77
2018-07-11T21:12:14.758Z,5.43
2018-07-11T21:16:55.208Z,12.03
2018-07-11T21:19:23.014Z,10.77
2018-07-11T21:21:50.644Z,5.23
2018-07-11T21:24:18.402Z,15.50
2018-07-11T21:26:46.096Z,11.00
2018-07-11T21:29:13.809Z,7.73
2018-07-11T21:31:41.478Z,13.07
2018-07-11T21:34:09.176Z,10.90
2018-07-11T21:36:36.940Z,8.83
2018-07-11T21:39:05.170Z,7.73
2018-07-11T21:41:33.120Z,9.97
2018-07-11T21:44:00.916Z,11.33
2018-07-11T21:46:28.604Z,6.03
2018-07-11T21:48:56.274Z,7.50
2018-07-11T21:51:24.042Z,6.57
2018-07-11T21:53:51.759Z,8.20
2018-07-11T21:56:19.510Z,11.73
2018-07-11T21:58:47.244Z,6.10
2018-07-11T22:01:15.985Z,4.97
2018-07-11T22:03:43.696Z,16.37
2018-07-11T22:06:11.364Z,11.60
2018-07-11T22:08:39.162Z,8.77
2018-07-11T22:11:06.793Z,14.90
2018-07-11T22:13:34.492Z,4.13
2018-07-11T22:16:02.177Z,16.63
2018-07-11T22:18:37.444Z,4.60
2018-07-11T22:21:05.054Z,6.50
2018-07-11T22:23:31.620Z,16.97
2018-07-11T22:25:58.840Z,7.63
2018-07-11T22:28:25.318Z,9.37
2018-07-11T22:30:51.827Z,9.57
2018-07-11T22:33:18.295Z,10.60
2018-07-11T22:35:44.797Z,10.53
2018-07-11T22:38:11.820Z,7.57
2018-07-11T22:40:38.524Z,5.70
2018-07-11T22:43:05.310Z,14.43
2018-07-11T22:45:31.826Z,10.13
2018-07-11T22:47:58.411Z,12.00
2018-07-11T22:50:25.108Z,7.47
2018-07-11T22:52:51.594Z,11.30
2018-07-11T22:55:18.093Z,7.70
2018-07-11T22:57:44.589Z,9.73
2018-07-11T23:00:11.060Z,10.53
2018-07-11T23:02:37.508Z,12.73
2018-07-11T23:05:04.009Z,13.07
2018-07-11T23:07:30.497Z,8.40
2018-07-11T23:09:56.980Z,12.97
2018-07-11T23:12:23.464Z,9.17
2018-07-11T23:14:49.948Z,8.93
2018-07-11T23:17:16.410Z,10.53
2018-07-11T23:19:42.910Z,13.37
2018-07-11T23:22:09.384Z,17.43
2018-07-11T23:24:35.848Z,17.60
2018-07-11T23:27:02.333Z,17.27
2018-07-11T23:29:28.814Z,25.17
2018-07-11T23:31:55.313Z,16.27
2018-07-11T23:34:21.805Z,19.87
2018-07-11T23:36:48.288Z,23.40
2018-07-11T23:39:14.783Z,24.87
2018-07-11T23:41:41.299Z,18.50
2018-07-11T23:44:07.769Z,29.77
2018-07-11T23:46:34.249Z,26.70
2018-07-11T23:49:00.755Z,17.77
2018-07-11T23:51:27.217Z,24.53
2018-07-11T23:53:53.691Z,20.27
2018-07-11T23:56:20.216Z,19.93
2018-07-11T23:58:47.065Z,21.37
